sensor_id;sensor_type;location;lat;lon;timestamp;P1;durP1;ratioP1;P2;durP2;ratioP2
28547;SDS011;68292;49.600;8.746;2023-07-08T00:01:11;9.52;;;7.35;;
28547;SDS011;68292;49.600;8.746;2023-07-08T00:03:42;7.90;;;7.10;;
28547;SDS011;68292;49.600;8.746;2023-07-08T00:06:12;10.52;;;7.53;;
28547;SDS011;68292;49.600;8.746;2023-07-08T00:08:44;7.32;;;6.47;;
28547;SDS011;68292;49.600;8.746;2023-07-08T00:11:14;8.07;;;7.28;;
28547;SDS011;68292;49.600;8.746;2023-07-08T00:13:44;8.55;;;7.50;;
28547;SDS011;68292;49.600;8.746;2023-07-08T00:16:13;8.35;;;6.82;;
28547;SDS011;68292;49.600;8.746;2023-07-08T00:18:45;8.15;;;7.05;;
28547;SDS011;68292;49.600;8.746;2023-07-08T00:21:15;8.27;;;7.18;;
28547;SDS011;68292;49.600;8.746;2023-07-08T00:23:45;7.63;;;6.93;;
28547;SDS011;68292;49.600;8.746;2023-07-08T00:26:17;8.65;;;7.75;;
28547;SDS011;68292;49.600;8.746;2023-07-08T00:28:50;11.07;;;7.60;;
28547;SDS011;68292;49.600;8.746;2023-07-08T00:31:19;7.97;;;7.18;;
28547;SDS011;68292;49.600;8.746;2023-07-08T00:33:50;8.38;;;7.32;;
28547;SDS011;68292;49.600;8.746;2023-07-08T00:36:22;8.25;;;7.45;;
28547;SDS011;68292;49.600;8.746;2023-07-08T00:38:52;8.55;;;7.55;;
28547;SDS011;68292;49.600;8.746;2023-07-08T00:41:22;8.85;;;7.18;;
28547;SDS011;68292;49.600;8.746;2023-07-08T00:43:56;8.25;;;7.45;;
28547;SDS011;68292;49.600;8.746;2023-07-08T00:46:29;8.48;;;6.43;;
28547;SDS011;68292;49.600;8.746;2023-07-08T00:49:11;8.07;;;7.28;;
28547;SDS011;68292;49.600;8.746;2023-07-08T00:51:50;8.65;;;7.75;;
28547;SDS011;68292;49.600;8.746;2023-07-08T00:54:19;9.90;;;8.27;;
28547;SDS011;68292;49.600;8.746;2023-07-08T00:56:52;8.48;;;6.47;;
28547;SDS011;68292;49.600;8.746;2023-07-08T00:59:25;7.60;;;6.80;;
28547;SDS011;68292;49.600;8.746;2023-07-08T01:01:57;10.88;;;7.72;;
28547;SDS011;68292;49.600;8.746;2023-07-08T01:04:31;7.88;;;7.10;;
28547;SDS011;68292;49.600;8.746;2023-07-08T01:07:09;8.48;;;7.28;;
28547;SDS011;68292;49.600;8.746;2023-07-08T01:09:39;8.27;;;7.05;;
28547;SDS011;68292;49.600;8.746;2023-07-08T01:12:14;8.18;;;6.45;;
28547;SDS011;68292;49.600;8.746;2023-07-08T01:14:46;8.05;;;6.78;;
28547;SDS011;68292;49.600;8.746;2023-07-08T01:17:16;10.98;;;6.75;;
28547;SDS011;68292;49.600;8.746;2023-07-08T01:19:44;10.88;;;7.45;;
28547;SDS011;68292;49.600;8.746;2023-07-08T01:22:15;8.10;;;7.30;;
28547;SDS011;68292;49.600;8.746;2023-07-08T01:24:43;8.15;;;7.35;;
28547;SDS011;68292;49.600;8.746;2023-07-08T01:27:13;7.93;;;7.22;;
28547;SDS011;68292;49.600;8.746;2023-07-08T01:29:45;7.60;;;6.75;;
28547;SDS011;68292;49.600;8.746;2023-07-08T01:32:14;8.20;;;7.40;;
28547;SDS011;68292;49.600;8.746;2023-07-08T01:34:45;9.38;;;6.97;;
28547;SDS011;68292;49.600;8.746;2023-07-08T01:37:30;8.52;;;7.63;;
28547;SDS011;68292;49.600;8.746;2023-07-08T01:40:15;10.48;;;7.82;;
28547;SDS011;68292;49.600;8.746;2023-07-08T01:42:51;7.82;;;7.07;;
28547;SDS011;68292;49.600;8.746;2023-07-08T01:45:20;7.80;;;6.78;;
28547;SDS011;68292;49.600;8.746;2023-07-08T01:47:55;8.05;;;6.75;;
28547;SDS011;68292;49.600;8.746;2023-07-08T01:50:26;8.63;;;7.10;;
28547;SDS011;68292;49.600;8.746;2023-07-08T01:52:59;8.60;;;7.43;;
28547;SDS011;68292;49.600;8.746;2023-07-08T01:55:30;8.00;;;6.95;;
28547;SDS011;68292;49.600;8.746;2023-07-08T01:57:58;7.80;;;6.95;;
28547;SDS011;68292;49.600;8.746;2023-07-08T02:00:26;7.88;;;7.05;;
28547;SDS011;68292;49.600;8.746;2023-07-08T02:02:55;8.57;;;7.60;;
28547;SDS011;68292;49.600;8.746;2023-07-08T02:05:23;8.48;;;6.75;;
28547;SDS011;68292;49.600;8.746;2023-07-08T02:07:51;8.07;;;7.28;;
28547;SDS011;68292;49.600;8.746;2023-07-08T02:10:21;7.90;;;7.10;;
28547;SDS011;68292;49.600;8.746;2023-07-08T02:12:51;10.23;;;7.43;;
28547;SDS011;68292;49.600;8.746;2023-07-08T02:15:19;7.88;;;7.07;;
28547;SDS011;68292;49.600;8.746;2023-07-08T02:17:48;7.40;;;6.70;;
28547;SDS011;68292;49.600;8.746;2023-07-08T02:20:17;11.13;;;7.20;;
28547;SDS011;68292;49.600;8.746;2023-07-08T02:22:45;8.85;;;7.07;;
28547;SDS011;68292;49.600;8.746;2023-07-08T02:25:13;6.63;;;6.03;;
28547;SDS011;68292;49.600;8.746;2023-07-08T02:27:43;7.75;;;7.00;;
28547;SDS011;68292;49.600;8.746;2023-07-08T02:30:11;8.43;;;6.18;;
28547;SDS011;68292;49.600;8.746;2023-07-08T02:32:40;8.55;;;7.00;;
28547;SDS011;68292;49.600;8.746;2023-07-08T02:35:15;7.03;;;6.18;;
28547;SDS011;68292;49.600;8.746;2023-07-08T02:37:43;7.40;;;6.70;;
28547;SDS011;68292;49.600;8.746;2023-07-08T02:40:12;7.00;;;6.30;;
28547;SDS011;68292;49.600;8.746;2023-07-08T02:42:41;8.15;;;6.78;;
28547;SDS011;68292;49.600;8.746;2023-07-08T02:45:11;7.90;;;7.10;;
28547;SDS011;68292;49.600;8.746;2023-07-08T02:47:40;7.93;;;7.13;;
28547;SDS011;68292;49.600;8.746;2023-07-08T02:50:09;6.93;;;6.20;;
28547;SDS011;68292;49.600;8.746;2023-07-08T02:52:38;7.05;;;6.35;;
28547;SDS011;68292;49.600;8.746;2023-07-08T02:55:07;9.30;;;6.65;;
28547;SDS011;68292;49.600;8.746;2023-07-08T02:57:36;6.75;;;6.15;;
28547;SDS011;68292;49.600;8.746;2023-07-08T03:00:04;9.10;;;6.75;;
28547;SDS011;68292;49.600;8.746;2023-07-08T03:02:35;6.78;;;6.15;;
28547;SDS011;68292;49.600;8.746;2023-07-08T03:05:03;8.40;;;7.15;;
28547;SDS011;68292;49.600;8.746;2023-07-08T03:07:32;9.05;;;7.10;;
28547;SDS011;68292;49.600;8.746;2023-07-08T03:10:00;7.45;;;6.25;;
28547;SDS011;68292;49.600;8.746;2023-07-08T03:12:29;8.02;;;6.72;;
28547;SDS011;68292;49.600;8.746;2023-07-08T03:14:58;7.72;;;6.65;;
28547;SDS011;68292;49.600;8.746;2023-07-08T03:17:26;7.47;;;6.80;;
28547;SDS011;68292;49.600;8.746;2023-07-08T03:19:55;8.50;;;6.90;;
28547;SDS011;68292;49.600;8.746;2023-07-08T03:22:23;9.13;;;6.95;;
28547;SDS011;68292;49.600;8.746;2023-07-08T03:24:51;9.77;;;7.18;;
28547;SDS011;68292;49.600;8.746;2023-07-08T03:27:21;7.82;;;6.57;;
28547;SDS011;68292;49.600;8.746;2023-07-08T03:29:49;6.80;;;5.93;;
28547;SDS011;68292;49.600;8.746;2023-07-08T03:32:18;7.95;;;6.53;;
28547;SDS011;68292;49.600;8.746;2023-07-08T03:34:46;8.63;;;6.50;;
28547;SDS011;68292;49.600;8.746;2023-07-08T03:37:16;8.38;;;6.68;;
28547;SDS011;68292;49.600;8.746;2023-07-08T03:39:44;6.75;;;6.15;;
28547;SDS011;68292;49.600;8.746;2023-07-08T03:42:12;6.90;;;6.20;;
28547;SDS011;68292;49.600;8.746;2023-07-08T03:44:40;8.00;;;6.80;;
28547;SDS011;68292;49.600;8.746;2023-07-08T03:47:09;7.20;;;6.43;;
28547;SDS011;68292;49.600;8.746;2023-07-08T03:49:37;6.90;;;6.20;;
28547;SDS011;68292;49.600;8.746;2023-07-08T03:52:07;7.13;;;6.43;;
28547;SDS011;68292;49.600;8.746;2023-07-08T03:54:44;7.68;;;6.88;;
28547;SDS011;68292;49.600;8.746;2023-07-08T03:57:13;9.20;;;5.95;;
28547;SDS011;68292;49.600;8.746;2023-07-08T03:59:42;8.85;;;6.25;;
28547;SDS011;68292;49.600;8.746;2023-07-08T04:02:10;14.27;;;6.97;;
28547;SDS011;68292;49.600;8.746;2023-07-08T04:04:39;6.20;;;5.60;;
28547;SDS011;68292;49.600;8.746;2023-07-08T04:07:09;6.80;;;6.10;;
28547;SDS011;68292;49.600;8.746;2023-07-08T04:09:38;6.93;;;6.18;;
28547;SDS011;68292;49.600;8.746;2023-07-08T04:12:11;8.30;;;6.10;;
28547;SDS011;68292;49.600;8.746;2023-07-08T04:14:39;7.22;;;5.65;;
28547;SDS011;68292;49.600;8.746;2023-07-08T04:17:09;6.90;;;5.88;;
28547;SDS011;68292;49.600;8.746;2023-07-08T04:19:38;7.45;;;6.60;;
28547;SDS011;68292;49.600;8.746;2023-07-08T04:22:10;9.52;;;6.20;;
28547;SDS011;68292;49.600;8.746;2023-07-08T04:24:38;6.90;;;6.20;;
28547;SDS011;68292;49.600;8.746;2023-07-08T04:27:07;7.43;;;6.38;;
28547;SDS011;68292;49.600;8.746;2023-07-08T04:29:41;6.90;;;6.25;;
28547;SDS011;68292;49.600;8.746;2023-07-08T04:32:10;6.95;;;6.22;;
28547;SDS011;68292;49.600;8.746;2023-07-08T04:34:38;6.95;;;5.40;;
28547;SDS011;68292;49.600;8.746;2023-07-08T04:37:07;7.47;;;6.00;;
28547;SDS011;68292;49.600;8.746;2023-07-08T04:39:37;8.57;;;6.25;;
28547;SDS011;68292;49.600;8.746;2023-07-08T04:42:05;6.95;;;5.80;;
28547;SDS011;68292;49.600;8.746;2023-07-08T04:44:34;7.00;;;6.30;;
28547;SDS011;68292;49.600;8.746;2023-07-08T04:47:03;8.18;;;6.57;;
28547;SDS011;68292;49.600;8.746;2023-07-08T04:49:33;8.45;;;6.25;;
28547;SDS011;68292;49.600;8.746;2023-07-08T04:52:01;8.25;;;5.72;;
28547;SDS011;68292;49.600;8.746;2023-07-08T04:54:29;6.85;;;6.25;;
28547;SDS011;68292;49.600;8.746;2023-07-08T04:56:57;6.55;;;5.72;;
28547;SDS011;68292;49.600;8.746;2023-07-08T04:59:25;6.78;;;6.07;;
28547;SDS011;68292;49.600;8.746;2023-07-08T05:01:55;7.75;;;6.05;;
28547;SDS011;68292;49.600;8.746;2023-07-08T05:04:23;6.35;;;5.72;;
28547;SDS011;68292;49.600;8.746;2023-07-08T05:06:51;7.28;;;5.93;;
28547;SDS011;68292;49.600;8.746;2023-07-08T05:09:19;6.65;;;5.70;;
28547;SDS011;68292;49.600;8.746;2023-07-08T05:11:49;6.82;;;6.13;;
28547;SDS011;68292;49.600;8.746;2023-07-08T05:14:17;6.60;;;6.00;;
28547;SDS011;68292;49.600;8.746;2023-07-08T05:16:45;6.88;;;5.93;;
28547;SDS011;68292;49.600;8.746;2023-07-08T05:19:15;7.00;;;5.95;;
28547;SDS011;68292;49.600;8.746;2023-07-08T05:21:44;7.78;;;6.15;;
28547;SDS011;68292;49.600;8.746;2023-07-08T05:24:14;7.40;;;6.40;;
28547;SDS011;68292;49.600;8.746;2023-07-08T05:26:42;7.10;;;5.60;;
28547;SDS011;68292;49.600;8.746;2023-07-08T05:29:10;6.90;;;5.38;;
28547;SDS011;68292;49.600;8.746;2023-07-08T05:31:38;6.60;;;6.00;;
28547;SDS011;68292;49.600;8.746;2023-07-08T05:34:14;5.95;;;5.35;;
28547;SDS011;68292;49.600;8.746;2023-07-08T05:36:45;6.38;;;5.65;;
28547;SDS011;68292;49.600;8.746;2023-07-08T05:39:16;6.32;;;5.40;;
28547;SDS011;68292;49.600;8.746;2023-07-08T05:41:44;6.90;;;6.20;;
28547;SDS011;68292;49.600;8.746;2023-07-08T05:44:12;7.57;;;5.88;;
28547;SDS011;68292;49.600;8.746;2023-07-08T05:46:40;5.95;;;5.30;;
28547;SDS011;68292;49.600;8.746;2023-07-08T05:49:08;6.85;;;5.57;;
28547;SDS011;68292;49.600;8.746;2023-07-08T05:51:38;6.72;;;6.05;;
28547;SDS011;68292;49.600;8.746;2023-07-08T05:54:06;11.27;;;6.40;;
28547;SDS011;68292;49.600;8.746;2023-07-08T05:56:34;6.57;;;5.97;;
28547;SDS011;68292;49.600;8.746;2023-07-08T05:59:02;7.13;;;6.38;;
28547;SDS011;68292;49.600;8.746;2023-07-08T06:01:30;6.72;;;6.05;;
28547;SDS011;68292;49.600;8.746;2023-07-08T06:03:59;6.22;;;5.47;;
28547;SDS011;68292;49.600;8.746;2023-07-08T06:06:28;7.82;;;5.93;;
28547;SDS011;68292;49.600;8.746;2023-07-08T06:08:58;6.30;;;5.65;;
28547;SDS011;68292;49.600;8.746;2023-07-08T06:11:26;7.53;;;5.90;;
28547;SDS011;68292;49.600;8.746;2023-07-08T06:13:58;6.57;;;5.57;;
28547;SDS011;68292;49.600;8.746;2023-07-08T06:19:06;6.78;;;5.88;;
28547;SDS011;68292;49.600;8.746;2023-07-08T06:21:35;6.93;;;6.22;;
28547;SDS011;68292;49.600;8.746;2023-07-08T06:24:05;6.85;;;5.97;;
28547;SDS011;68292;49.600;8.746;2023-07-08T06:26:33;7.28;;;6.15;;
28547;SDS011;68292;49.600;8.746;2023-07-08T06:29:02;7.63;;;6.30;;
28547;SDS011;68292;49.600;8.746;2023-07-08T06:31:31;8.27;;;5.75;;
28547;SDS011;68292;49.600;8.746;2023-07-08T06:33:59;7.65;;;6.85;;
28547;SDS011;68292;49.600;8.746;2023-07-08T06:36:28;8.45;;;7.32;;
28547;SDS011;68292;49.600;8.746;2023-07-08T06:38:56;7.60;;;6.90;;
28547;SDS011;68292;49.600;8.746;2023-07-08T06:41:25;8.50;;;6.82;;
28547;SDS011;68292;49.600;8.746;2023-07-08T06:43:53;8.73;;;6.80;;
28547;SDS011;68292;49.600;8.746;2023-07-08T06:46:25;7.55;;;6.80;;
28547;SDS011;68292;49.600;8.746;2023-07-08T06:48:53;8.52;;;7.45;;
28547;SDS011;68292;49.600;8.746;2023-07-08T06:51:21;8.88;;;7.88;;
28547;SDS011;68292;49.600;8.746;2023-07-08T06:53:49;10.40;;;7.50;;
28547;SDS011;68292;49.600;8.746;2023-07-08T06:56:17;8.57;;;7.68;;
28547;SDS011;68292;49.600;8.746;2023-07-08T06:58:47;9.32;;;8.05;;
28547;SDS011;68292;49.600;8.746;2023-07-08T07:01:15;10.90;;;8.70;;
28547;SDS011;68292;49.600;8.746;2023-07-08T07:03:43;11.48;;;10.32;;
28547;SDS011;68292;49.600;8.746;2023-07-08T07:06:11;11.75;;;8.75;;
28547;SDS011;68292;49.600;8.746;2023-07-08T07:08:39;12.02;;;8.48;;
28547;SDS011;68292;49.600;8.746;2023-07-08T07:11:08;13.57;;;8.95;;
28547;SDS011;68292;49.600;8.746;2023-07-08T07:13:36;9.77;;;7.68;;
28547;SDS011;68292;49.600;8.746;2023-07-08T07:16:05;12.68;;;8.38;;
28547;SDS011;68292;49.600;8.746;2023-07-08T07:18:34;12.38;;;9.27;;
28547;SDS011;68292;49.600;8.746;2023-07-08T07:21:02;9.30;;;8.40;;
28547;SDS011;68292;49.600;8.746;2023-07-08T07:23:33;9.73;;;8.70;;
28547;SDS011;68292;49.600;8.746;2023-07-08T07:26:01;10.05;;;7.82;;
28547;SDS011;68292;49.600;8.746;2023-07-08T07:28:30;8.45;;;7.65;;
28547;SDS011;68292;49.600;8.746;2023-07-08T07:30:59;10.15;;;8.63;;
28547;SDS011;68292;49.600;8.746;2023-07-08T07:33:30;9.95;;;7.20;;
28547;SDS011;68292;49.600;8.746;2023-07-08T07:35:58;9.52;;;8.18;;
28547;SDS011;68292;49.600;8.746;2023-07-08T07:38:27;8.38;;;7.55;;
28547;SDS011;68292;49.600;8.746;2023-07-08T07:40:55;9.48;;;7.63;;
28547;SDS011;68292;49.600;8.746;2023-07-08T07:43:26;8.55;;;6.97;;
28547;SDS011;68292;49.600;8.746;2023-07-08T07:45:54;11.18;;;8.57;;
28547;SDS011;68292;49.600;8.746;2023-07-08T07:48:23;8.15;;;7.10;;
28547;SDS011;68292;49.600;8.746;2023-07-08T07:50:52;10.85;;;7.53;;
28547;SDS011;68292;49.600;8.746;2023-07-08T07:53:21;9.93;;;6.93;;
28547;SDS011;68292;49.600;8.746;2023-07-08T07:55:55;8.18;;;6.70;;
28547;SDS011;68292;49.600;8.746;2023-07-08T07:58:24;6.75;;;5.97;;
28547;SDS011;68292;49.600;8.746;2023-07-08T08:00:53;6.95;;;6.25;;
28547;SDS011;68292;49.600;8.746;2023-07-08T08:03:21;7.93;;;6.13;;
28547;SDS011;68292;49.600;8.746;2023-07-08T08:05:50;8.30;;;5.45;;
28547;SDS011;68292;49.600;8.746;2023-07-08T08:08:19;5.80;;;5.20;;
28547;SDS011;68292;49.600;8.746;2023-07-08T08:10:48;7.43;;;5.05;;
28547;SDS011;68292;49.600;8.746;2023-07-08T08:13:17;5.68;;;4.80;;
28547;SDS011;68292;49.600;8.746;2023-07-08T08:15:45;7.40;;;5.03;;
28547;SDS011;68292;49.600;8.746;2023-07-08T08:18:13;7.47;;;4.72;;
28547;SDS011;68292;49.600;8.746;2023-07-08T08:20:41;6.18;;;5.03;;
28547;SDS011;68292;49.600;8.746;2023-07-08T08:23:09;5.28;;;4.78;;
28547;SDS011;68292;49.600;8.746;2023-07-08T08:25:38;7.22;;;4.68;;
28547;SDS011;68292;49.600;8.746;2023-07-08T08:28:07;6.07;;;5.05;;
28547;SDS011;68292;49.600;8.746;2023-07-08T08:30:35;6.97;;;4.88;;
28547;SDS011;68292;49.600;8.746;2023-07-08T08:33:03;5.93;;;4.75;;
28547;SDS011;68292;49.600;8.746;2023-07-08T08:35:31;6.80;;;4.72;;
28547;SDS011;68292;49.600;8.746;2023-07-08T08:37:59;6.88;;;4.68;;
28547;SDS011;68292;49.600;8.746;2023-07-08T08:40:29;15.32;;;6.55;;
28547;SDS011;68292;49.600;8.746;2023-07-08T08:43:01;16.27;;;5.97;;
28547;SDS011;68292;49.600;8.746;2023-07-08T08:45:32;12.45;;;5.35;;
28547;SDS011;68292;49.600;8.746;2023-07-08T08:48:20;7.60;;;4.82;;
28547;SDS011;68292;49.600;8.746;2023-07-08T08:50:50;8.23;;;5.50;;
28547;SDS011;68292;49.600;8.746;2023-07-08T08:53:23;13.80;;;6.43;;
28547;SDS011;68292;49.600;8.746;2023-07-08T08:55:53;6.05;;;5.22;;
28547;SDS011;68292;49.600;8.746;2023-07-08T08:58:30;5.35;;;4.68;;
28547;SDS011;68292;49.600;8.746;2023-07-08T09:01:07;6.22;;;5.30;;
28547;SDS011;68292;49.600;8.746;2023-07-08T09:03:42;7.57;;;5.53;;
28547;SDS011;68292;49.600;8.746;2023-07-08T09:06:16;5.72;;;5.13;;
28547;SDS011;68292;49.600;8.746;2023-07-08T09:08:48;6.18;;;5.47;;
28547;SDS011;68292;49.600;8.746;2023-07-08T09:11:22;8.10;;;4.90;;
28547;SDS011;68292;49.600;8.746;2023-07-08T09:14:06;6.13;;;4.20;;
28547;SDS011;68292;49.600;8.746;2023-07-08T09:16:44;9.00;;;5.63;;
28547;SDS011;68292;49.600;8.746;2023-07-08T09:19:22;7.07;;;5.20;;
28547;SDS011;68292;49.600;8.746;2023-07-08T09:21:53;5.63;;;5.07;;
28547;SDS011;68292;49.600;8.746;2023-07-08T09:24:31;4.93;;;4.40;;
28547;SDS011;68292;49.600;8.746;2023-07-08T09:27:06;5.22;;;4.53;;
28547;SDS011;68292;49.600;8.746;2023-07-08T09:29:36;6.15;;;5.55;;
28547;SDS011;68292;49.600;8.746;2023-07-08T09:32:11;7.10;;;4.90;;
28547;SDS011;68292;49.600;8.746;2023-07-08T09:34:45;8.43;;;5.03;;
28547;SDS011;68292;49.600;8.746;2023-07-08T09:37:21;5.97;;;4.65;;
28547;SDS011;68292;49.600;8.746;2023-07-08T09:39:52;7.10;;;4.88;;
28547;SDS011;68292;49.600;8.746;2023-07-08T09:42:24;7.40;;;4.72;;
28547;SDS011;68292;49.600;8.746;2023-07-08T09:44:58;5.53;;;4.80;;
28547;SDS011;68292;49.600;8.746;2023-07-08T09:47:30;6.00;;;4.93;;
28547;SDS011;68292;49.600;8.746;2023-07-08T09:50:03;6.30;;;4.70;;
28547;SDS011;68292;49.600;8.746;2023-07-08T09:52:45;5.13;;;4.63;;
28547;SDS011;68292;49.600;8.746;2023-07-08T09:55:14;9.52;;;4.85;;
28547;SDS011;68292;49.600;8.746;2023-07-08T09:57:43;6.68;;;5.35;;
28547;SDS011;68292;49.600;8.746;2023-07-08T10:00:15;5.72;;;4.20;;
28547;SDS011;68292;49.600;8.746;2023-07-08T10:02:46;5.55;;;4.75;;
28547;SDS011;68292;49.600;8.746;2023-07-08T10:05:22;7.60;;;4.93;;
28547;SDS011;68292;49.600;8.746;2023-07-08T10:07:59;6.95;;;5.30;;
28547;SDS011;68292;49.600;8.746;2023-07-08T10:10:31;5.30;;;4.63;;
28547;SDS011;68292;49.600;8.746;2023-07-08T10:13:03;7.47;;;5.00;;
28547;SDS011;68292;49.600;8.746;2023-07-08T10:15:52;6.38;;;4.95;;
28547;SDS011;68292;49.600;8.746;2023-07-08T10:18:26;6.13;;;4.70;;
28547;SDS011;68292;49.600;8.746;2023-07-08T10:20:57;7.13;;;4.97;;
28547;SDS011;68292;49.600;8.746;2023-07-08T10:23:34;5.25;;;4.75;;
28547;SDS011;68292;49.600;8.746;2023-07-08T10:26:13;5.40;;;4.88;;
28547;SDS011;68292;49.600;8.746;2023-07-08T10:28:49;5.15;;;4.65;;
28547;SDS011;68292;49.600;8.746;2023-07-08T10:31:32;7.32;;;5.47;;
28547;SDS011;68292;49.600;8.746;2023-07-08T10:34:17;5.72;;;5.05;;
28547;SDS011;68292;49.600;8.746;2023-07-08T10:37:04;8.90;;;5.53;;
28547;SDS011;68292;49.600;8.746;2023-07-08T10:39:49;6.03;;;5.40;;
28547;SDS011;68292;49.600;8.746;2023-07-08T10:42:41;10.77;;;5.28;;
28547;SDS011;68292;49.600;8.746;2023-07-08T10:45:23;5.47;;;4.85;;
28547;SDS011;68292;49.600;8.746;2023-07-08T10:48:04;7.65;;;5.13;;
28547;SDS011;68292;49.600;8.746;2023-07-08T10:50:52;8.55;;;4.95;;
28547;SDS011;68292;49.600;8.746;2023-07-08T10:53:39;16.40;;;5.07;;
28547;SDS011;68292;49.600;8.746;2023-07-08T10:56:27;9.05;;;4.93;;
28547;SDS011;68292;49.600;8.746;2023-07-08T10:59:09;5.68;;;4.85;;
28547;SDS011;68292;49.600;8.746;2023-07-08T11:01:56;5.43;;;4.85;;
28547;SDS011;68292;49.600;8.746;2023-07-08T11:04:48;7.32;;;5.45;;
28547;SDS011;68292;49.600;8.746;2023-07-08T11:07:29;6.45;;;5.20;;
28547;SDS011;68292;49.600;8.746;2023-07-08T11:10:05;5.53;;;5.00;;
28547;SDS011;68292;49.600;8.746;2023-07-08T11:12:42;6.57;;;4.63;;
28547;SDS011;68292;49.600;8.746;2023-07-08T11:15:17;6.60;;;4.68;;
28547;SDS011;68292;49.600;8.746;2023-07-08T11:17:53;6.13;;;5.38;;
28547;SDS011;68292;49.600;8.746;2023-07-08T11:20:31;6.35;;;5.40;;
28547;SDS011;68292;49.600;8.746;2023-07-08T11:23:09;7.57;;;5.05;;
28547;SDS011;68292;49.600;8.746;2023-07-08T11:25:50;5.95;;;4.55;;
28547;SDS011;68292;49.600;8.746;2023-07-08T11:28:22;6.88;;;4.53;;
28547;SDS011;68292;49.600;8.746;2023-07-08T11:30:51;5.18;;;4.13;;
28547;SDS011;68292;49.600;8.746;2023-07-08T11:33:21;5.25;;;4.70;;
28547;SDS011;68292;49.600;8.746;2023-07-08T11:35:54;5.63;;;4.57;;
28547;SDS011;68292;49.600;8.746;2023-07-08T11:38:26;5.10;;;4.60;;
28547;SDS011;68292;49.600;8.746;2023-07-08T11:40:55;5.38;;;4.82;;
28547;SDS011;68292;49.600;8.746;2023-07-08T11:43:27;6.68;;;5.05;;
28547;SDS011;68292;49.600;8.746;2023-07-08T11:46:03;6.43;;;4.60;;
28547;SDS011;68292;49.600;8.746;2023-07-08T11:48:37;5.22;;;4.72;;
28547;SDS011;68292;49.600;8.746;2023-07-08T11:51:11;5.07;;;4.57;;
28547;SDS011;68292;49.600;8.746;2023-07-08T11:53:46;7.10;;;5.03;;
28547;SDS011;68292;49.600;8.746;2023-07-08T11:56:20;8.80;;;5.03;;
28547;SDS011;68292;49.600;8.746;2023-07-08T11:58:52;6.38;;;4.60;;
28547;SDS011;68292;49.600;8.746;2023-07-08T12:01:38;5.82;;;4.43;;
28547;SDS011;68292;49.600;8.746;2023-07-08T12:04:23;7.35;;;5.05;;
28547;SDS011;68292;49.600;8.746;2023-07-08T12:07:08;7.55;;;4.47;;
28547;SDS011;68292;49.600;8.746;2023-07-08T12:09:47;6.45;;;4.25;;
28547;SDS011;68292;49.600;8.746;2023-07-08T12:12:22;10.48;;;4.85;;
28547;SDS011;68292;49.600;8.746;2023-07-08T12:14:53;6.53;;;4.75;;
28547;SDS011;68292;49.600;8.746;2023-07-08T12:17:32;7.00;;;4.38;;
28547;SDS011;68292;49.600;8.746;2023-07-08T12:20:00;5.63;;;4.13;;
28547;SDS011;68292;49.600;8.746;2023-07-08T12:22:33;5.38;;;4.18;;
28547;SDS011;68292;49.600;8.746;2023-07-08T12:25:01;3.50;;;3.20;;
28547;SDS011;68292;49.600;8.746;2023-07-08T12:27:31;3.20;;;2.90;;
28547;SDS011;68292;49.600;8.746;2023-07-08T12:29:59;4.43;;;3.13;;
28547;SDS011;68292;49.600;8.746;2023-07-08T12:32:29;4.88;;;3.22;;
28547;SDS011;68292;49.600;8.746;2023-07-08T12:34:57;2.78;;;2.58;;
28547;SDS011;68292;49.600;8.746;2023-07-08T12:37:25;2.85;;;2.65;;
28547;SDS011;68292;49.600;8.746;2023-07-08T12:39:56;8.63;;;4.32;;
28547;SDS011;68292;49.600;8.746;2023-07-08T12:42:30;5.60;;;4.43;;
28547;SDS011;68292;49.600;8.746;2023-07-08T12:44:58;3.95;;;3.33;;
28547;SDS011;68292;49.600;8.746;2023-07-08T12:47:26;4.97;;;3.97;;
28547;SDS011;68292;49.600;8.746;2023-07-08T12:49:55;3.20;;;2.67;;
28547;SDS011;68292;49.600;8.746;2023-07-08T12:52:23;3.22;;;2.75;;
28547;SDS011;68292;49.600;8.746;2023-07-08T12:54:51;8.50;;;4.25;;
28547;SDS011;68292;49.600;8.746;2023-07-08T12:57:20;5.60;;;3.95;;
28547;SDS011;68292;49.600;8.746;2023-07-08T12:59:49;4.95;;;4.45;;
28547;SDS011;68292;49.600;8.746;2023-07-08T13:02:18;4.80;;;4.10;;
28547;SDS011;68292;49.600;8.746;2023-07-08T13:04:49;7.40;;;5.47;;
28547;SDS011;68292;49.600;8.746;2023-07-08T13:07:28;4.88;;;4.47;;
28547;SDS011;68292;49.600;8.746;2023-07-08T13:10:03;5.15;;;4.65;;
28547;SDS011;68292;49.600;8.746;2023-07-08T13:12:34;5.20;;;4.57;;
28547;SDS011;68292;49.600;8.746;2023-07-08T13:15:05;5.38;;;4.45;;
28547;SDS011;68292;49.600;8.746;2023-07-08T13:17:41;4.88;;;4.47;;
28547;SDS011;68292;49.600;8.746;2023-07-08T13:20:10;6.65;;;4.80;;
28547;SDS011;68292;49.600;8.746;2023-07-08T13:22:42;8.70;;;5.15;;
28547;SDS011;68292;49.600;8.746;2023-07-08T13:25:26;6.10;;;4.40;;
28547;SDS011;68292;49.600;8.746;2023-07-08T13:27:58;6.75;;;5.22;;
28547;SDS011;68292;49.600;8.746;2023-07-08T13:30:29;5.47;;;4.65;;
28547;SDS011;68292;49.600;8.746;2023-07-08T13:32:59;6.10;;;4.75;;
28547;SDS011;68292;49.600;8.746;2023-07-08T13:35:28;6.20;;;5.00;;
28547;SDS011;68292;49.600;8.746;2023-07-08T13:38:04;7.10;;;5.00;;
28547;SDS011;68292;49.600;8.746;2023-07-08T13:40:32;4.53;;;4.07;;
28547;SDS011;68292;49.600;8.746;2023-07-08T13:43:02;5.55;;;4.55;;
28547;SDS011;68292;49.600;8.746;2023-07-08T13:45:31;7.72;;;4.95;;
28547;SDS011;68292;49.600;8.746;2023-07-08T13:48:03;6.60;;;4.72;;
28547;SDS011;68292;49.600;8.746;2023-07-08T13:50:44;6.55;;;4.50;;
28547;SDS011;68292;49.600;8.746;2023-07-08T13:53:20;7.03;;;4.30;;
28547;SDS011;68292;49.600;8.746;2023-07-08T13:55:57;7.22;;;4.72;;
28547;SDS011;68292;49.600;8.746;2023-07-08T13:58:29;6.07;;;4.63;;
28547;SDS011;68292;49.600;8.746;2023-07-08T14:00:57;5.25;;;4.43;;
28547;SDS011;68292;49.600;8.746;2023-07-08T14:03:26;6.07;;;4.57;;
28547;SDS011;68292;49.600;8.746;2023-07-08T14:05:55;5.35;;;4.75;;
28547;SDS011;68292;49.600;8.746;2023-07-08T14:08:23;14.52;;;4.97;;
28547;SDS011;68292;49.600;8.746;2023-07-08T14:10:52;6.35;;;4.50;;
28547;SDS011;68292;49.600;8.746;2023-07-08T14:13:20;8.07;;;4.95;;
28547;SDS011;68292;49.600;8.746;2023-07-08T14:15:49;6.43;;;5.30;;
28547;SDS011;68292;49.600;8.746;2023-07-08T14:18:18;7.22;;;4.30;;
28547;SDS011;68292;49.600;8.746;2023-07-08T14:20:46;7.32;;;4.78;;
28547;SDS011;68292;49.600;8.746;2023-07-08T14:23:14;5.60;;;4.53;;
28547;SDS011;68292;49.600;8.746;2023-07-08T14:25:44;5.45;;;4.47;;
28547;SDS011;68292;49.600;8.746;2023-07-08T14:28:12;7.07;;;4.55;;
28547;SDS011;68292;49.600;8.746;2023-07-08T14:30:40;6.00;;;5.10;;
28547;SDS011;68292;49.600;8.746;2023-07-08T14:33:13;5.03;;;4.43;;
28547;SDS011;68292;49.600;8.746;2023-07-08T14:35:42;10.15;;;4.70;;
28547;SDS011;68292;49.600;8.746;2023-07-08T14:38:10;5.60;;;4.75;;
28547;SDS011;68292;49.600;8.746;2023-07-08T14:40:40;6.68;;;5.03;;
28547;SDS011;68292;49.600;8.746;2023-07-08T14:43:11;4.75;;;4.25;;
28547;SDS011;68292;49.600;8.746;2023-07-08T14:45:46;4.90;;;4.32;;
28547;SDS011;68292;49.600;8.746;2023-07-08T14:48:19;8.32;;;4.25;;
28547;SDS011;68292;49.600;8.746;2023-07-08T14:50:48;7.82;;;4.93;;
28547;SDS011;68292;49.600;8.746;2023-07-08T14:53:17;6.53;;;4.63;;
28547;SDS011;68292;49.600;8.746;2023-07-08T14:55:46;6.88;;;5.35;;
28547;SDS011;68292;49.600;8.746;2023-07-08T14:58:20;5.60;;;4.40;;
28547;SDS011;68292;49.600;8.746;2023-07-08T15:00:53;5.32;;;4.78;;
28547;SDS011;68292;49.600;8.746;2023-07-08T15:03:25;5.88;;;4.38;;
28547;SDS011;68292;49.600;8.746;2023-07-08T15:05:54;5.72;;;4.32;;
28547;SDS011;68292;49.600;8.746;2023-07-08T15:08:22;5.32;;;4.40;;
28547;SDS011;68292;49.600;8.746;2023-07-08T15:10:51;5.25;;;4.28;;
28547;SDS011;68292;49.600;8.746;2023-07-08T15:13:21;7.32;;;4.50;;